Time;durP1;ratioP1;P1;durP2;ratioP2;P2;SDS_P1;SDS_P2;PMS_P1;PMS_P2;Temp;Humidity;BMP_temperature;BMP_pressure;BME280_temperature;BME280_humidity;BME280_pressure;Samples;Min_cycle;Max_cycle;Signal;HPM_P1;HPM_P2
2021/08/16 00:00:15;;;;;;;22.02;16.17;;;20.80;99.90;;;;;;4972381;28;20399;-70
2021/08/16 00:02:42;;;;;;;23.63;15.55;;;20.70;99.90;;;;;;4971889;28;20396;-70
2021/08/16 00:05:09;;;;;;;23.70;16.17;;;20.60;99.90;;;;;;4971436;28;20392;-69
2021/08/16 00:07:34;;;;;;;23.80;16.48;;;20.60;99.90;;;;;;4971636;28;20748;-70
2021/08/16 00:10:00;;;;;;;24.60;16.80;;;20.60;99.90;;;;;;4970833;28;20388;-70
2021/08/16 00:12:25;;;;;;;23.00;15.37;;;20.60;99.90;;;;;;4972248;28;20807;-70
2021/08/16 00:14:51;;;;;;;25.10;15.20;;;20.70;99.90;;;;;;4970681;28;20388;-69
2021/08/16 00:17:17;;;;;;;22.40;15.57;;;20.60;99.90;;;;;;4971637;28;20411;-70
2021/08/16 00:19:43;;;;;;;23.65;16.00;;;20.60;99.90;;;;;;4971896;28;20458;-70
2021/08/16 00:22:08;;;;;;;24.60;15.80;;;20.60;99.90;;;;;;4971004;28;20856;-69
2021/08/16 00:24:34;;;;;;;21.70;14.30;;;20.60;99.90;;;;;;4971724;28;20423;-70
2021/08/16 00:26:59;;;;;;;23.13;15.13;;;20.60;99.90;;;;;;4970865;28;20384;-70
2021/08/16 00:29:26;;;;;;;22.27;16.38;;;20.60;99.90;;;;;;4971403;28;20459;-69
2021/08/16 00:31:51;;;;;;;23.25;16.05;;;20.50;99.90;;;;;;4970753;28;20484;-70
2021/08/16 00:34:17;;;;;;;26.30;16.00;;;20.50;99.90;;;;;;4971290;28;20536;-70
2021/08/16 00:36:43;;;;;;;22.17;15.70;;;20.60;99.90;;;;;;4971181;28;20387;-70
2021/08/16 00:39:08;;;;;;;23.53;16.57;;;20.50;99.90;;;;;;4970592;28;20511;-70
2021/08/16 00:41:35;;;;;;;31.05;17.08;;;20.60;99.90;;;;;;4971483;28;20471;-70
2021/08/16 00:44:01;;;;;;;25.38;16.67;;;20.70;99.90;;;;;;4970466;28;20403;-70
2021/08/16 00:46:29;;;;;;;27.00;16.70;;;20.80;99.90;;;;;;4971305;28;20388;-70
2021/08/16 00:48:55;;;;;;;26.63;16.85;;;20.80;99.90;;;;;;4970329;28;20906;-70
2021/08/16 00:51:21;;;;;;;28.50;14.37;;;20.80;99.90;;;;;;4970590;28;20408;-70
2021/08/16 00:53:47;;;;;;;26.05;16.42;;;20.80;99.90;;;;;;4970880;28;20399;-62
2021/08/16 00:56:13;;;;;;;23.85;16.50;;;20.80;99.90;;;;;;4971172;28;20381;-70
2021/08/16 00:58:41;;;;;;;27.92;16.33;;;20.80;99.90;;;;;;4970881;28;20479;-70
2021/08/16 01:01:06;;;;;;;25.17;17.30;;;20.70;99.90;;;;;;4970220;28;20523;-69
2021/08/16 01:03:32;;;;;;;23.15;16.02;;;20.70;99.90;;;;;;4970720;28;20927;-69
2021/08/16 01:05:59;;;;;;;23.03;15.27;;;20.60;99.90;;;;;;4970505;28;20698;-70
2021/08/16 01:08:26;;;;;;;26.50;15.98;;;20.70;99.90;;;;;;4970907;28;20840;-69
2021/08/16 01:10:53;;;;;;;21.13;14.70;;;20.70;99.90;;;;;;4969969;28;20847;-69
2021/08/16 01:13:19;;;;;;;21.27;15.25;;;20.80;99.90;;;;;;4953736;28;20432;-68
2021/08/16 01:15:58;;;;;;;24.20;16.20;;;20.80;99.90;;;;;;4970845;28;20509;-70
2021/08/16 01:18:25;;;;;;;25.50;16.35;;;20.80;99.90;;;;;;4970695;28;20400;-69
2021/08/16 01:20:53;;;;;;;24.00;15.10;;;20.90;99.90;;;;;;4969978;28;20510;-62
2021/08/16 01:23:20;;;;;;;26.33;15.43;;;20.80;99.90;;;;;;4970903;28;20392;-69
2021/08/16 01:25:49;;;;;;;21.67;15.27;;;20.70;99.90;;;;;;4970568;28;20385;-67
2021/08/16 01:28:16;;;;;;;22.75;15.70;;;20.70;99.90;;;;;;4970932;28;20462;-69
2021/08/16 01:30:42;;;;;;;21.60;14.67;;;20.70;99.90;;;;;;4970829;28;20392;-70
2021/08/16 01:33:08;;;;;;;18.48;14.00;;;20.70;99.90;;;;;;4970026;28;20474;-70
2021/08/16 01:35:34;;;;;;;21.85;12.95;;;20.70;99.90;;;;;;4970880;28;20388;-69
2021/08/16 01:38:00;;;;;;;20.10;13.40;;;20.80;99.90;;;;;;4969792;28;20399;-68
2021/08/16 01:40:26;;;;;;;21.70;13.50;;;20.80;99.90;;;;;;4970779;28;20411;-70
2021/08/16 01:42:51;;;;;;;19.70;12.90;;;20.90;99.90;;;;;;4970107;28;20428;-62
2021/08/16 01:45:17;;;;;;;20.10;12.40;;;21.00;99.90;;;;;;4970507;28;20437;-68
2021/08/16 01:47:43;;;;;;;19.70;12.80;;;21.00;99.90;;;;;;4970398;28;20963;-70
2021/08/16 01:50:09;;;;;;;19.77;12.77;;;21.00;99.90;;;;;;4969977;28;20778;-70
2021/08/16 01:52:34;;;;;;;22.00;13.47;;;21.00;99.90;;;;;;4970922;28;20419;-71
2021/08/16 01:55:01;;;;;;;21.77;13.52;;;21.10;99.90;;;;;;4969956;28;20484;-70
2021/08/16 01:57:26;;;;;;;20.08;14.43;;;21.00;99.90;;;;;;4970320;28;20860;-70
2021/08/16 01:59:52;;;;;;;20.00;13.67;;;20.90;99.90;;;;;;4969911;28;20450;-62
2021/08/16 02:02:19;;;;;;;18.65;13.70;;;20.80;99.90;;;;;;4971667;28;20508;-70
2021/08/16 02:04:47;;;;;;;20.67;14.50;;;20.80;99.90;;;;;;4974072;28;20479;-68
2021/08/16 02:07:13;;;;;;;22.65;13.07;;;20.80;99.90;;;;;;4956005;28;20948;-70
2021/08/16 02:09:39;;;;;;;18.67;13.57;;;20.80;99.90;;;;;;4973858;28;20486;-70
2021/08/16 02:12:05;;;;;;;19.50;13.60;;;20.70;99.90;;;;;;4972839;28;20459;-70
2021/08/16 02:14:31;;;;;;;18.73;13.75;;;20.70;99.90;;;;;;4973968;28;20392;-70
2021/08/16 02:16:57;;;;;;;18.67;13.18;;;20.60;99.90;;;;;;4973212;28;20404;-70
2021/08/16 02:19:22;;;;;;;18.83;13.47;;;20.70;99.90;;;;;;4974442;28;20860;-70
2021/08/16 02:21:48;;;;;;;17.83;13.03;;;20.70;99.90;;;;;;4974199;28;20407;-70
2021/08/16 02:24:13;;;;;;;16.23;12.23;;;20.70;99.90;;;;;;4973313;28;20607;-70
2021/08/16 02:26:39;;;;;;;19.63;13.45;;;20.70;99.90;;;;;;4974152;28;20407;-70
2021/08/16 02:29:05;;;;;;;18.57;12.40;;;20.70;99.90;;;;;;4973192;28;20721;-70
2021/08/16 02:31:31;;;;;;;19.60;13.60;;;20.70;99.90;;;;;;4974154;28;20402;-70
2021/08/16 02:33:57;;;;;;;17.20;13.00;;;20.70;99.90;;;;;;4972930;28;20399;-70
2021/08/16 02:36:23;;;;;;;18.90;13.77;;;20.70;99.90;;;;;;4977710;28;20399;-71
2021/08/16 02:38:49;;;;;;;18.85;13.48;;;20.70;99.90;;;;;;4989047;28;20386;-70
2021/08/16 02:41:15;;;;;;;20.60;13.10;;;20.70;99.90;;;;;;4976041;28;20415;-70
2021/08/16 02:43:41;;;;;;;19.70;12.80;;;20.70;99.90;;;;;;4984582;28;20406;-70
2021/08/16 02:46:06;;;;;;;18.90;12.90;;;20.70;99.90;;;;;;4991869;28;20428;-68
2021/08/16 02:48:32;;;;;;;20.23;14.20;;;20.80;99.90;;;;;;4993079;28;20402;-70
2021/08/16 02:50:58;;;;;;;18.63;12.57;;;20.80;99.90;;;;;;4991922;28;20474;-69
2021/08/16 02:53:23;;;;;;;17.93;12.33;;;20.90;99.90;;;;;;4992603;28;20378;-65
2021/08/16 02:55:49;;;;;;;18.00;13.30;;;21.00;99.90;;;;;;4992938;28;20425;-69
2021/08/16 02:58:14;;;;;;;20.27;13.13;;;21.10;99.90;;;;;;4992285;28;20378;-67
2021/08/16 03:00:40;;;;;;;23.75;12.32;;;21.10;99.90;;;;;;4992605;28;20418;-70
2021/08/16 03:03:06;;;;;;;18.08;12.88;;;21.20;99.90;;;;;;4992075;28;20479;-70
2021/08/16 03:05:32;;;;;;;18.20;13.10;;;21.20;99.90;;;;;;4992723;28;20397;-69
2021/08/16 03:07:57;;;;;;;18.10;12.70;;;21.30;99.90;;;;;;4991542;28;20434;-62
2021/08/16 03:10:23;;;;;;;19.42;12.88;;;21.30;99.90;;;;;;4992285;28;20388;-70
2021/08/16 03:12:48;;;;;;;16.90;12.73;;;21.20;99.90;;;;;;4992192;28;20925;-68
2021/08/16 03:15:14;;;;;;;17.93;12.90;;;21.20;99.90;;;;;;4991435;28;20905;-68
2021/08/16 03:17:40;;;;;;;21.17;13.67;;;21.40;99.90;;;;;;4992515;28;20953;-70
2021/08/16 03:20:07;;;;;;;18.58;12.68;;;21.40;99.90;;;;;;4991656;28;20501;-70
2021/08/16 03:22:32;;;;;;;19.08;13.38;;;21.50;99.90;;;;;;4992226;28;20414;-70
2021/08/16 03:24:58;;;;;;;20.93;14.17;;;21.40;99.90;;;;;;4991543;28;20395;-63
2021/08/16 03:27:24;;;;;;;19.83;12.60;;;21.20;99.90;;;;;;4974645;28;20397;-70
2021/08/16 03:29:50;;;;;;;19.65;12.90;;;21.10;99.90;;;;;;4992497;28;20378;-70
2021/08/16 03:32:16;;;;;;;17.90;13.10;;;21.00;99.90;;;;;;4990377;28;20405;-70
2021/08/16 03:34:41;;;;;;;17.27;12.38;;;21.00;99.90;;;;;;4992158;28;20398;-69
2021/08/16 03:37:07;;;;;;;19.27;13.57;;;21.00;99.90;;;;;;4991353;28;20395;-67
2021/08/16 03:39:33;;;;;;;17.80;13.20;;;21.00;99.90;;;;;;4991913;28;20473;-70
2021/08/16 03:41:58;;;;;;;16.58;12.35;;;21.00;99.90;;;;;;4991286;28;20402;-62
2021/08/16 03:44:24;;;;;;;17.55;12.70;;;21.00;99.90;;;;;;4991646;28;20858;-69
2021/08/16 03:46:50;;;;;;;19.70;13.33;;;21.10;99.90;;;;;;4991663;28;20521;-70
2021/08/16 03:49:15;;;;;;;21.80;13.90;;;21.00;99.90;;;;;;4990954;28;20477;-70
2021/08/16 03:51:41;;;;;;;20.65;14.00;;;20.90;99.90;;;;;;4984556;28;20456;-70
2021/08/16 03:54:07;;;;;;;25.80;14.20;;;20.90;99.90;;;;;;4984277;28;20386;-70
2021/08/16 03:56:33;;;;;;;21.33;14.70;;;20.90;99.90;;;;;;4979327;28;20524;-70
2021/08/16 03:58:59;;;;;;;18.83;14.40;;;20.80;99.90;;;;;;4970393;28;20842;-62
2021/08/16 04:01:24;;;;;;;22.20;15.35;;;20.80;99.90;;;;;;4978921;28;20529;-70
2021/08/16 04:03:50;;;;;;;21.60;14.00;;;20.70;99.90;;;;;;4974555;28;20418;-71
2021/08/16 04:06:16;;;;;;;22.43;13.60;;;20.70;99.90;;;;;;4972156;28;20384;-69
2021/08/16 04:08:43;;;;;;;20.48;13.75;;;20.80;99.90;;;;;;4991460;28;20460;-70
2021/08/16 04:11:11;;;;;;;23.37;14.97;;;20.70;99.90;;;;;;4983060;28;20408;-70
2021/08/16 04:13:37;;;;;;;21.63;14.02;;;20.70;99.90;;;;;;4984044;28;20392;-70
2021/08/16 04:16:03;;;;;;;17.73;12.20;;;20.60;99.90;;;;;;4974841;28;20419;-65
2021/08/16 04:18:29;;;;;;;16.80;10.98;;;20.60;99.90;;;;;;4972934;28;20591;-69
2021/08/16 04:20:55;;;;;;;17.23;10.23;;;20.50;99.90;;;;;;4981335;28;20497;-67
2021/08/16 04:23:20;;;;;;;16.03;10.70;;;20.60;99.90;;;;;;4982013;28;20989;-70
2021/08/16 04:25:46;;;;;;;17.97;10.17;;;20.60;99.90;;;;;;4981080;28;20402;-69
2021/08/16 04:28:13;;;;;;;15.07;10.55;;;20.80;99.90;;;;;;4976638;28;20391;-70
2021/08/16 04:30:39;;;;;;;15.45;10.30;;;20.80;99.90;;;;;;4986453;28;20406;-69
2021/08/16 04:33:05;;;;;;;17.30;10.40;;;20.80;99.90;;;;;;4983577;28;20401;-70
2021/08/16 04:35:30;;;;;;;14.82;9.70;;;20.90;99.90;;;;;;4979926;28;20867;-70
2021/08/16 04:37:56;;;;;;;17.43;11.37;;;20.90;99.90;;;;;;4973245;28;20892;-68
2021/08/16 04:40:22;;;;;;;16.02;9.90;;;22.10;99.90;;;;;;4974480;28;20392;-70
2021/08/16 04:42:48;;;;;;;17.60;11.10;;;20.70;99.90;;;;;;4985685;28;20856;-66
2021/08/16 04:45:14;;;;;;;14.17;9.57;;;20.70;99.90;;;;;;4961640;28;20485;-70
2021/08/16 04:47:44;;;;;;;13.48;9.43;;;20.70;99.90;;;;;;4977808;28;20411;-70
2021/08/16 04:50:11;;;;;;;16.15;10.75;;;20.70;99.90;;;;;;4980731;28;20851;-69
2021/08/16 04:52:37;;;;;;;14.25;10.02;;;20.60;99.90;;;;;;4990899;28;20986;-70
2021/08/16 04:55:03;;;;;;;14.13;9.50;;;20.60;99.90;;;;;;4990182;28;20387;-62
2021/08/16 04:57:32;;;;;;;15.50;9.80;;;20.60;99.90;;;;;;4990557;28;20387;-70
2021/08/16 04:59:58;;;;;;;13.93;9.43;;;20.70;99.90;;;;;;4990260;28;20447;-70
2021/08/16 05:02:24;;;;;;;16.90;9.70;;;20.70;99.90;;;;;;4987539;28;20437;-68
2021/08/16 05:04:54;;;;;;;16.48;9.98;;;20.80;99.90;;;;;;4971324;28;20495;-70
2021/08/16 05:07:21;;;;;;;16.08;9.82;;;20.80;99.90;;;;;;4969962;28;20508;-69
2021/08/16 05:09:51;;;;;;;13.65;9.00;;;21.00;99.90;;;;;;4970806;28;20737;-70
2021/08/16 05:12:17;;;;;;;14.80;9.55;;;21.00;99.90;;;;;;4970116;28;20892;-70
2021/08/16 05:14:43;;;;;;;13.67;9.67;;;21.20;99.90;;;;;;4953648;28;20408;-70
2021/08/16 05:17:09;;;;;;;15.43;9.20;;;21.30;99.90;;;;;;4970048;28;20407;-70
2021/08/16 05:19:37;;;;;;;14.23;9.13;;;21.40;99.90;;;;;;4984495;28;20422;-69
2021/08/16 05:22:06;;;;;;;13.20;8.70;;;21.50;99.90;;;;;;4970833;28;20416;-62
2021/08/16 05:24:32;;;;;;;14.20;8.80;;;21.60;99.90;;;;;;4970874;28;20438;-70
2021/08/16 05:26:58;;;;;;;14.27;8.75;;;21.60;99.90;;;;;;4974768;28;20405;-69
2021/08/16 05:29:23;;;;;;;16.73;9.43;;;21.50;99.90;;;;;;4988406;28;20854;-70
2021/08/16 05:31:49;;;;;;;14.87;8.50;;;21.50;99.90;;;;;;4971848;28;20388;-70
2021/08/16 05:34:15;;;;;;;13.43;8.38;;;21.50;99.90;;;;;;4969564;28;20468;-70
2021/08/16 05:36:40;;;;;;;14.50;9.50;;;21.50;99.90;;;;;;4972814;28;20441;-70
2021/08/16 05:39:06;;;;;;;14.85;8.43;;;21.50;99.90;;;;;;4973982;28;20451;-63
2021/08/16 05:41:32;;;;;;;14.23;8.60;;;21.40;99.90;;;;;;4974346;28;20466;-69
2021/08/16 05:43:57;;;;;;;14.87;8.10;;;21.40;99.90;;;;;;4981523;28;20934;-69
2021/08/16 05:46:23;;;;;;;13.83;8.80;;;21.30;99.90;;;;;;4969589;28;20445;-70
2021/08/16 05:48:48;;;;;;;17.63;8.23;;;21.20;99.90;;;;;;4956657;28;20411;-69
2021/08/16 05:51:14;;;;;;;13.15;8.70;;;21.10;99.90;;;;;;4978925;28;20823;-70
2021/08/16 05:53:40;;;;;;;12.73;8.13;;;21.40;99.90;;;;;;4988822;28;20429;-68
2021/08/16 05:56:08;;;;;;;13.55;7.88;;;21.90;99.90;;;;;;4974315;28;20446;-62
2021/08/16 05:58:33;;;;;;;13.80;7.40;;;21.90;99.90;;;;;;4976572;28;20399;-69
2021/08/16 06:00:59;;;;;;;14.30;7.10;;;22.00;99.90;;;;;;4993380;28;20945;-70
2021/08/16 06:03:25;;;;;;;10.07;6.15;;;22.00;99.90;;;;;;4986181;28;20868;-70
2021/08/16 06:05:50;;;;;;;14.17;7.33;;;21.40;99.90;;;;;;4973685;28;20483;-70
2021/08/16 06:08:16;;;;;;;12.37;6.53;;;21.30;99.90;;;;;;4983615;28;20420;-69
2021/08/16 06:10:41;;;;;;;16.17;6.03;;;21.00;99.90;;;;;;4983303;28;20382;-71
2021/08/16 06:13:07;;;;;;;12.37;6.10;;;21.10;99.90;;;;;;4983017;28;20471;-62
2021/08/16 06:15:33;;;;;;;12.27;5.80;;;21.20;99.90;;;;;;4981610;28;20914;-70
2021/08/16 06:17:58;;;;;;;10.27;5.57;;;21.80;99.90;;;;;;4963889;28;20410;-70
2021/08/16 06:20:24;;;;;;;11.07;4.70;;;22.40;99.90;;;;;;4986761;28;21037;-70
2021/08/16 06:22:50;;;;;;;9.77;4.72;;;23.60;99.90;;;;;;4979636;28;20590;-68
2021/08/16 06:25:16;;;;;;;9.87;4.23;;;25.20;99.90;;;;;;4979481;28;20820;-67
2021/08/16 06:27:41;;;;;;;9.50;4.23;;;26.10;99.90;;;;;;4979039;28;20500;-71
2021/08/16 06:30:08;;;;;;;9.53;4.20;;;27.10;99.90;;;;;;4984815;28;20471;-63
2021/08/16 06:32:37;;;;;;;8.20;4.30;;;27.70;99.90;;;;;;4981272;28;20422;-70
2021/08/16 06:35:04;;;;;;;10.25;4.70;;;28.00;99.90;;;;;;4992504;28;20402;-70
2021/08/16 06:37:30;;;;;;;9.65;4.75;;;28.60;99.90;;;;;;4989265;28;20405;-69
2021/08/16 06:39:55;;;;;;;10.02;4.10;;;29.20;99.90;;;;;;4981368;28;20473;-68
2021/08/16 06:42:21;;;;;;;13.63;5.40;;;29.00;99.90;;;;;;4983125;28;20427;-67
2021/08/16 06:44:47;;;;;;;11.82;6.28;;;28.60;99.90;;;;;;4988332;28;20407;-69
2021/08/16 06:47:13;;;;;;;10.27;6.30;;;27.40;99.90;;;;;;4967443;28;20787;-69
2021/08/16 06:49:39;;;;;;;9.98;5.30;;;27.30;99.90;;;;;;4981428;28;20512;-69
2021/08/16 06:52:05;;;;;;;11.45;4.32;;;26.80;99.90;;;;;;4982341;28;20468;-68
2021/08/16 06:54:31;;;;;;;10.60;3.80;;;26.40;99.90;;;;;;4986936;28;20410;-69
2021/08/16 06:57:04;;;;;;;8.52;4.45;;;25.50;99.90;;;;;;4980080;28;20776;-71
2021/08/16 06:59:32;;;;;;;9.80;4.00;;;25.40;99.90;;;;;;4975409;28;20977;-68
2021/08/16 07:01:57;;;;;;;9.93;4.00;;;24.60;99.90;;;;;;4979287;28;20411;-67
2021/08/16 07:04:24;;;;;;;9.47;4.30;;;24.10;99.90;;;;;;4976588;28;20394;-68
2021/08/16 07:06:50;;;;;;;9.63;4.47;;;23.90;99.90;;;;;;4980916;28;20400;-68
2021/08/16 07:09:15;;;;;;;9.18;4.72;;;24.00;99.90;;;;;;4974609;28;20418;-68
2021/08/16 07:11:41;;;;;;;10.07;5.20;;;24.90;99.90;;;;;;4980545;28;20419;-66
2021/08/16 07:14:07;;;;;;;10.40;4.47;;;25.40;99.90;;;;;;4981183;28;20895;-67
2021/08/16 07:16:32;;;;;;;11.37;5.63;;;26.60;99.90;;;;;;4982500;28;20481;-68
2021/08/16 07:18:58;;;;;;;9.13;4.63;;;27.10;99.90;;;;;;4978400;28;20388;-68
2021/08/16 07:21:24;;;;;;;12.33;4.90;;;27.00;99.90;;;;;;4982571;28;20508;-68
2021/08/16 07:23:49;;;;;;;10.70;5.87;;;27.20;99.90;;;;;;4979999;28;20494;-69
2021/08/16 07:26:15;;;;;;;12.90;4.40;;;26.80;99.90;;;;;;4980152;28;20834;-66
2021/08/16 07:28:41;;;;;;;8.60;5.20;;;27.00;99.90;;;;;;4980654;28;20497;-67
2021/08/16 07:31:07;;;;;;;10.88;5.00;;;27.80;99.90;;;;;;4982673;28;20406;-63
2021/08/16 07:33:32;;;;;;;9.63;5.05;;;28.30;99.90;;;;;;4988638;28;21091;-67
2021/08/16 07:35:58;;;;;;;11.25;4.88;;;28.10;99.90;;;;;;4983227;28;20384;-69
2021/08/16 07:38:24;;;;;;;10.25;4.50;;;27.20;99.90;;;;;;4964426;28;20396;-67
2021/08/16 07:40:50;;;;;;;10.52;3.70;;;26.90;99.90;;;;;;4978265;28;20450;-68
2021/08/16 07:43:18;;;;;;;7.85;4.20;;;26.70;99.90;;;;;;4973947;28;20918;-65
2021/08/16 07:45:44;;;;;;;9.40;4.05;;;26.20;99.90;;;;;;4974712;28;20788;-66
2021/08/16 07:48:10;;;;;;;8.87;4.00;;;26.40;99.90;;;;;;4974431;28;20416;-62
2021/08/16 07:50:36;;;;;;;10.20;4.60;;;26.10;99.90;;;;;;4976116;28;20685;-65
2021/08/16 07:53:01;;;;;;;8.38;3.60;;;25.80;99.90;;;;;;4977473;28;20515;-68
2021/08/16 07:55:27;;;;;;;8.55;3.47;;;26.30;99.90;;;;;;4972916;28;20438;-66
2021/08/16 07:57:53;;;;;;;9.07;4.30;;;27.20;99.90;;;;;;4972513;28;20400;-67
2021/08/16 08:00:19;;;;;;;7.13;3.90;;;26.80;99.90;;;;;;4973405;28;20439;-68
2021/08/16 08:02:46;;;;;;;7.75;4.20;;;26.90;99.90;;;;;;4974400;28;20433;-68
2021/08/16 08:05:15;;;;;;;10.00;4.97;;;26.40;99.90;;;;;;4978126;28;20422;-62
2021/08/16 08:07:41;;;;;;;10.90;4.15;;;26.10;99.90;;;;;;4977231;28;20421;-67
2021/08/16 08:10:08;;;;;;;11.17;4.57;;;25.40;99.90;;;;;;4977139;28;20860;-66
2021/08/16 08:12:34;;;;;;;9.10;4.18;;;24.60;99.90;;;;;;4975588;28;20545;-66
2021/08/16 08:15:01;;;;;;;8.77;3.80;;;24.50;99.90;;;;;;4983007;28;20442;-67
2021/08/16 08:17:27;;;;;;;10.93;4.60;;;24.20;99.90;;;;;;4963010;28;20414;-65
2021/08/16 08:19:55;;;;;;;10.13;4.30;;;23.50;99.90;;;;;;4983303;28;20433;-67
2021/08/16 08:22:21;;;;;;;10.70;4.28;;;23.40;99.90;;;;;;4983458;28;20501;-68
2021/08/16 08:24:47;;;;;;;9.90;4.20;;;23.10;99.90;;;;;;4987010;28;20465;-67
2021/08/16 08:27:13;;;;;;;10.60;4.20;;;23.00;99.90;;;;;;4986537;28;20494;-63
2021/08/16 08:29:40;;;;;;;13.07;4.70;;;24.10;99.90;;;;;;4979923;28;20396;-68
2021/08/16 08:32:06;;;;;;;11.57;4.90;;;22.80;99.90;;;;;;4972060;28;20446;-65
2021/08/16 08:34:32;;;;;;;10.07;4.22;;;22.90;99.90;;;;;;4975161;28;20419;-67
2021/08/16 08:36:58;;;;;;;10.75;4.63;;;22.90;99.90;;;;;;4981883;28;20400;-68
2021/08/16 08:39:23;;;;;;;8.95;4.50;;;22.80;99.90;;;;;;4981940;28;20402;-68
2021/08/16 08:41:53;;;;;;;11.90;5.00;;;22.70;99.90;;;;;;4979510;28;20415;-67
2021/08/16 08:44:20;;;;;;;9.68;4.70;;;22.90;99.90;;;;;;4988565;28;20465;-62
2021/08/16 08:46:48;;;;;;;10.63;4.90;;;23.00;99.90;;;;;;4984439;28;20412;-66
2021/08/16 08:49:14;;;;;;;10.93;5.20;;;22.80;99.90;;;;;;4983358;28;20940;-66
2021/08/16 08:51:40;;;;;;;11.57;5.15;;;22.70;99.90;;;;;;4988935;28;20418;-67
2021/08/16 08:54:07;;;;;;;9.48;4.90;;;22.90;99.90;;;;;;4976528;28;20444;-66
2021/08/16 08:56:34;;;;;;;10.50;4.67;;;23.10;99.90;;;;;;4978760;28;20930;-67
2021/08/16 08:59:00;;;;;;;9.45;4.80;;;22.80;99.90;;;;;;4975890;28;20406;-66
2021/08/16 09:01:27;;;;;;;11.70;4.00;;;23.00;99.90;;;;;;4969524;28;20496;-66
2021/08/16 09:03:55;;;;;;;10.27;4.60;;;22.60;99.90;;;;;;4973940;28;20827;-67
2021/08/16 09:06:32;;;;;;;9.73;4.43;;;22.50;99.90;;;;;;4973202;28;20530;-67
2021/08/16 09:08:59;;;;;;;9.98;4.20;;;22.30;99.90;;;;;;4970500;28;20493;-67
2021/08/16 09:11:27;;;;;;;10.80;4.37;;;23.30;99.90;;;;;;4980282;28;20886;-66
2021/08/16 09:13:57;;;;;;;10.10;4.10;;;23.90;99.90;;;;;;4988144;28;20414;-67
2021/08/16 09:16:24;;;;;;;11.20;4.45;;;24.50;99.90;;;;;;4977961;28;20410;-68
2021/08/16 09:18:51;;;;;;;9.48;4.47;;;25.70;99.90;;;;;;4971398;28;20761;-67
2021/08/16 09:21:34;;;;;;;8.48;4.50;;;25.70;99.90;;;;;;4980312;28;20446;-63
2021/08/16 09:24:01;;;;;;;10.05;4.20;;;25.00;99.90;;;;;;4982711;28;20408;-69
2021/08/16 09:26:34;;;;;;;8.88;4.07;;;24.50;99.90;;;;;;4980704;28;20886;-64
2021/08/16 09:29:28;;;;;;;10.65;4.43;;;24.20;99.90;;;;;;4975241;28;20410;-60
2021/08/16 09:31:55;;;;;;;9.50;4.10;;;24.30;99.90;;;;;;4974067;28;20481;-62
2021/08/16 09:34:35;;;;;;;11.15;4.47;;;24.30;99.90;;;;;;4985312;28;20390;-60
2021/08/16 09:37:13;;;;;;;11.25;4.40;;;24.30;99.90;;;;;;4979300;28;20528;-61
2021/08/16 09:39:39;;;;;;;9.80;3.60;;;23.90;99.90;;;;;;4971156;28;20457;-62
2021/08/16 09:42:05;;;;;;;8.98;3.80;;;24.80;99.90;;;;;;4968570;28;20422;-62
2021/08/16 09:44:31;;;;;;;8.95;3.47;;;25.20;99.90;;;;;;4981418;28;20387;-62
2021/08/16 09:47:05;;;;;;;7.55;3.15;;;24.60;99.90;;;;;;4980369;28;20482;-62
2021/08/16 09:49:31;;;;;;;8.02;3.47;;;24.10;99.90;;;;;;4981248;28;20866;-62
2021/08/16 09:52:08;;;;;;;9.60;3.47;;;24.30;99.90;;;;;;4983240;28;20923;-63
2021/08/16 09:54:36;;;;;;;10.38;3.42;;;25.20;99.90;;;;;;4974556;28;20393;-61
2021/08/16 09:57:05;;;;;;;9.35;3.80;;;24.80;99.90;;;;;;4971819;28;20504;-61
2021/08/16 09:59:33;;;;;;;8.68;3.30;;;24.60;99.90;;;;;;4972632;28;20456;-62
2021/08/16 10:01:59;;;;;;;7.97;3.17;;;24.80;99.90;;;;;;4984481;28;20418;-63
2021/08/16 10:04:25;;;;;;;9.38;3.10;;;26.30;99.90;;;;;;4980063;28;20406;-60
2021/08/16 10:06:54;;;;;;;9.10;3.80;;;27.60;99.90;;;;;;4980481;28;20872;-62
2021/08/16 10:09:22;;;;;;;8.57;3.38;;;28.20;99.30;;;;;;4976076;28;20391;-59
2021/08/16 10:11:56;;;;;;;12.30;4.40;;;27.10;99.90;;;;;;4977919;28;20529;-63
2021/08/16 10:14:30;;;;;;;10.40;3.60;;;27.00;99.90;;;;;;4984940;28;20493;-61
2021/08/16 10:16:57;;;;;;;8.93;3.85;;;25.90;99.90;;;;;;4982071;28;22091;-62
2021/08/16 10:19:44;;;;;;;8.50;3.00;;;25.10;99.90;;;;;;4979575;28;20395;-61
2021/08/16 10:22:10;;;;;;;9.40;3.80;;;23.90;99.90;;;;;;4978990;28;20455;-63
2021/08/16 10:24:36;;;;;;;11.30;3.60;;;23.10;99.90;;;;;;4989073;28;20430;-63
2021/08/16 10:27:11;;;;;;;8.03;3.70;;;22.80;99.90;;;;;;4989110;28;20463;-63
2021/08/16 10:29:40;;;;;;;8.60;3.35;;;23.00;99.90;;;;;;4988831;28;20418;-63
2021/08/16 10:32:20;;;;;;;8.83;3.70;;;22.70;99.90;;;;;;4984718;28;20420;-62
2021/08/16 10:34:45;;;;;;;9.48;3.33;;;22.70;99.90;;;;;;4988808;28;20785;-63
2021/08/16 10:37:15;;;;;;;9.90;3.50;;;22.70;99.90;;;;;;4988127;28;20555;-64
2021/08/16 10:39:45;;;;;;;9.80;3.70;;;23.00;99.90;;;;;;4970520;28;20431;-66
2021/08/16 10:42:12;;;;;;;10.55;3.60;;;22.80;99.90;;;;;;4972518;28;20420;-66
2021/08/16 10:44:49;;;;;;;12.00;3.63;;;22.60;99.90;;;;;;4971644;28;20903;-65
2021/08/16 10:47:32;;;;;;;9.55;4.00;;;22.40;99.90;;;;;;4977227;28;20846;-67
2021/08/16 10:50:12;;;;;;;8.65;3.80;;;22.50;99.90;;;;;;4973602;28;20411;-65
2021/08/16 10:52:39;;;;;;;11.30;3.67;;;22.20;99.90;;;;;;4985114;28;21046;-67
2021/08/16 10:55:12;;;;;;;8.25;3.25;;;22.10;99.90;;;;;;4976317;28;20407;-66
2021/08/16 10:57:42;;;;;;;8.50;2.83;;;22.00;99.90;;;;;;4971240;28;20397;-66
2021/08/16 11:00:10;;;;;;;12.05;3.55;;;22.00;99.90;;;;;;4985841;28;20394;-67
2021/08/16 11:02:42;;;;;;;7.38;2.80;;;22.20;99.90;;;;;;4984776;28;20418;-67
2021/08/16 11:05:09;;;;;;;9.45;3.20;;;22.00;99.90;;;;;;4990869;28;20422;-67
2021/08/16 11:07:35;;;;;;;11.17;3.47;;;22.10;99.90;;;;;;4985045;28;20404;-66
2021/08/16 11:10:06;;;;;;;8.30;3.38;;;22.00;99.90;;;;;;4988602;28;20391;-66
2021/08/16 11:12:42;;;;;;;9.63;3.45;;;22.40;99.90;;;;;;4983633;28;20887;-67
2021/08/16 11:15:09;;;;;;;9.60;3.47;;;22.70;99.90;;;;;;4986597;28;20406;-66
2021/08/16 11:17:34;;;;;;;10.93;3.45;;;23.10;99.90;;;;;;4981139;28;20422;-67
2021/08/16 11:20:02;;;;;;;7.63;3.33;;;22.90;99.90;;;;;;4988137;28;20414;-69
2021/08/16 11:22:29;;;;;;;10.93;4.00;;;22.90;99.90;;;;;;4988344;28;20410;-66
2021/08/16 11:24:55;;;;;;;7.70;3.03;;;23.00;99.90;;;;;;4986491;28;20477;-67
2021/08/16 11:27:23;;;;;;;9.07;3.80;;;23.30;99.90;;;;;;4989638;28;20406;-67
2021/08/16 11:30:06;;;;;;;10.40;3.60;;;23.50;99.90;;;;;;4989744;28;20386;-64
2021/08/16 11:32:34;;;;;;;8.90;3.00;;;23.60;99.90;;;;;;4989017;28;20882;-65
2021/08/16 11:35:00;;;;;;;9.38;3.70;;;23.80;99.90;;;;;;4989989;28;20398;-67
2021/08/16 11:37:32;;;;;;;9.90;3.30;;;23.60;99.90;;;;;;4988805;28;20390;-63
2021/08/16 11:39:59;;;;;;;9.18;3.45;;;23.30;99.90;;;;;;4982861;28;20724;-66
2021/08/16 11:42:26;;;;;;;8.55;2.90;;;23.10;99.90;;;;;;4982046;28;20414;-63
2021/08/16 11:45:14;;;;;;;9.60;3.20;;;22.90;99.90;;;;;;4990496;28;20390;-67
2021/08/16 11:47:43;;;;;;;8.90;3.30;;;23.10;99.90;;;;;;4964601;28;20412;-67
2021/08/16 11:50:11;;;;;;;7.55;2.80;;;23.70;99.90;;;;;;4986941;28;20391;-67
2021/08/16 11:52:38;;;;;;;8.48;3.63;;;24.00;99.90;;;;;;4990197;28;20935;-66
2021/08/16 11:55:05;;;;;;;7.15;2.80;;;24.30;99.90;;;;;;4972822;28;21022;-67
2021/08/16 11:57:32;;;;;;;8.03;3.30;;;24.40;99.90;;;;;;4970592;28;20392;-68
2021/08/16 11:59:59;;;;;;;8.82;3.30;;;23.80;99.90;;;;;;4981147;28;20392;-66
2021/08/16 12:02:27;;;;;;;7.90;3.40;;;23.50;99.90;;;;;;4971471;28;20435;-64
2021/08/16 12:04:55;;;;;;;8.98;3.60;;;23.30;99.90;;;;;;4979301;28;20409;-67
2021/08/16 12:07:24;;;;;;;6.93;2.97;;;23.20;99.90;;;;;;4985543;28;20403;-66
2021/08/16 12:09:50;;;;;;;8.38;3.17;;;22.90;99.90;;;;;;4982828;28;20403;-66
2021/08/16 12:12:21;;;;;;;7.43;3.00;;;22.70;99.90;;;;;;4986104;28;20383;-67
2021/08/16 12:14:47;;;;;;;9.70;3.33;;;22.80;99.90;;;;;;4972643;28;20522;-67
2021/08/16 12:17:23;;;;;;;9.60;3.40;;;22.80;99.90;;;;;;4971632;28;20411;-67
2021/08/16 12:20:02;;;;;;;10.27;3.40;;;23.30;99.90;;;;;;4970376;28;20384;-67
2021/08/16 12:22:28;;;;;;;8.85;3.30;;;23.90;99.90;;;;;;4975470;28;20418;-62
2021/08/16 12:25:08;;;;;;;8.73;3.50;;;23.90;99.90;;;;;;4989772;28;20457;-67
2021/08/16 12:27:34;;;;;;;8.52;3.60;;;23.90;99.90;;;;;;4955845;28;20403;-67
2021/08/16 12:30:00;;;;;;;8.25;3.42;;;24.10;99.90;;;;;;4973587;28;20398;-67
2021/08/16 12:32:29;;;;;;;8.35;3.55;;;23.70;99.90;;;;;;4976010;28;20471;-67
2021/08/16 12:34:55;;;;;;;8.80;3.40;;;23.60;99.90;;;;;;4987065;28;20428;-66